Time;durP1;ratioP1;P1;durP2;ratioP2;P2;SDS_P1;SDS_P2;PMS_P1;PMS_P2;Temp;Humidity;BMP_temperature;BMP_pressure;BME280_temperature;BME280_humidity;BME280_pressure;Samples;Min_cycle;Max_cycle;Signal;HPM_P1;HPM_P2
2021/05/02 00:01:57;;;;;;;2.03;1.67;;;;;;;;;;6186494;23;20027;-47
2021/05/02 00:04:23;;;;;;;2.20;1.45;;;;;;;;;;6186927;23;20309;-47
2021/05/02 00:06:49;;;;;;;2.25;1.90;;;;;;;;;;6187391;23;20005;-47
2021/05/02 00:09:15;;;;;;;3.88;1.90;;;;;;;;;;6186575;23;20005;-48
2021/05/02 00:11:41;;;;;;;3.63;1.70;;;;;;;;;;6187092;23;20309;-46
2021/05/02 00:14:07;;;;;;;2.20;1.60;;;;;;;;;;6187119;23;19997;-48
2021/05/02 00:16:35;;;;;;;2.95;1.65;;;;;;;;;;6186884;23;20009;-47
2021/05/02 00:19:02;;;;;;;2.42;1.80;;;;;;;;;;6186383;23;20330;-47
2021/05/02 00:21:28;;;;;;;3.17;2.25;;;;;;;;;;6187148;23;20001;-46
2021/05/02 00:23:54;;;;;;;5.20;2.40;;;;;;;;;;6187086;23;19993;-46
2021/05/02 00:26:20;;;;;;;3.05;2.00;;;;;;;;;;6187212;23;20007;-48
2021/05/02 00:28:49;;;;;;;3.40;2.30;;;;;;;;;;6186338;23;20009;-47
2021/05/02 00:31:16;;;;;;;6.00;2.80;;;;;;;;;;6186953;23;20080;-48
2021/05/02 00:33:43;;;;;;;6.38;3.50;;;;;;;;;;6187094;23;20064;-47
2021/05/02 00:36:10;;;;;;;7.38;3.72;;;;;;;;;;6186694;23;20344;-47
2021/05/02 00:38:38;;;;;;;10.48;3.80;;;;;;;;;;6186829;23;20305;-47
2021/05/02 00:41:06;;;;;;;6.82;4.18;;;;;;;;;;6186592;23;20422;-47
2021/05/02 00:43:35;;;;;;;5.90;3.53;;;;;;;;;;6186610;23;19998;-46
2021/05/02 00:46:09;;;;;;;7.57;3.50;;;;;;;;;;6186804;23;20001;-46
2021/05/02 00:48:49;;;;;;;4.57;3.15;;;;;;;;;;6186102;23;20460;-47
2021/05/02 00:51:16;;;;;;;6.17;3.77;;;;;;;;;;6186455;23;20085;-47
2021/05/02 00:53:45;;;;;;;6.30;3.22;;;;;;;;;;6187196;23;20217;-47
2021/05/02 00:56:17;;;;;;;7.75;3.70;;;;;;;;;;6186539;23;20016;-47
2021/05/02 00:58:49;;;;;;;5.95;3.75;;;;;;;;;;6186521;23;20004;-47
2021/05/02 01:01:18;;;;;;;7.55;3.55;;;;;;;;;;6186766;23;20059;-48
2021/05/02 01:03:46;;;;;;;9.05;4.05;;;;;;;;;;6186137;23;20004;-46
2021/05/02 01:06:14;;;;;;;7.40;3.58;;;;;;;;;;6186519;23;20084;-47
2021/05/02 01:08:41;;;;;;;5.95;3.55;;;;;;;;;;6186416;23;20001;-47
2021/05/02 01:11:10;;;;;;;5.00;3.50;;;;;;;;;;6186181;23;19997;-47
2021/05/02 01:13:37;;;;;;;5.13;3.28;;;;;;;;;;6186274;23;20013;-46
2021/05/02 01:16:05;;;;;;;6.13;3.53;;;;;;;;;;6186228;23;20439;-46
2021/05/02 01:18:31;;;;;;;8.15;3.95;;;;;;;;;;6185843;23;20349;-46
2021/05/02 01:20:58;;;;;;;5.35;3.05;;;;;;;;;;6186111;23;20044;-46
2021/05/02 01:23:24;;;;;;;6.25;3.50;;;;;;;;;;6186437;23;19997;-47
2021/05/02 01:25:52;;;;;;;5.43;3.00;;;;;;;;;;6186044;23;20016;-47
2021/05/02 01:28:19;;;;;;;4.20;3.17;;;;;;;;;;6186105;23;20068;-47
2021/05/02 01:30:45;;;;;;;6.35;3.33;;;;;;;;;;6186568;23;20007;-47
2021/05/02 01:33:11;;;;;;;5.35;3.40;;;;;;;;;;6186260;23;20028;-46
2021/05/02 01:35:37;;;;;;;7.20;3.90;;;;;;;;;;6186177;23;20044;-46
2021/05/02 01:38:04;;;;;;;7.57;3.22;;;;;;;;;;6186512;23;20012;-47
2021/05/02 01:40:30;;;;;;;5.80;3.38;;;;;;;;;;6185264;23;20051;-47
2021/05/02 01:42:56;;;;;;;6.78;3.38;;;;;;;;;;6185948;23;20301;-46
2021/05/02 01:45:22;;;;;;;6.53;3.75;;;;;;;;;;6186064;23;20427;-47
2021/05/02 01:47:52;;;;;;;6.90;3.47;;;;;;;;;;6186487;23;20075;-46
2021/05/02 01:50:19;;;;;;;6.05;3.30;;;;;;;;;;6185836;23;20089;-46
2021/05/02 01:52:48;;;;;;;5.80;3.45;;;;;;;;;;6186376;23;20113;-48
2021/05/02 01:55:15;;;;;;;6.45;3.45;;;;;;;;;;6186037;23;20023;-47
2021/05/02 01:57:42;;;;;;;5.40;3.67;;;;;;;;;;6186123;23;20023;-47
2021/05/02 02:00:10;;;;;;;5.85;3.92;;;;;;;;;;6185870;23;20001;-47
2021/05/02 02:02:37;;;;;;;8.20;4.13;;;;;;;;;;6185932;23;20415;-46
2021/05/02 02:05:04;;;;;;;4.90;3.67;;;;;;;;;;6185887;23;20005;-46
2021/05/02 02:07:30;;;;;;;6.78;3.88;;;;;;;;;;6185670;23;20100;-48
2021/05/02 02:09:57;;;;;;;5.32;3.70;;;;;;;;;;6185370;23;20005;-46
2021/05/02 02:12:23;;;;;;;5.30;3.50;;;;;;;;;;6186005;23;20001;-47
2021/05/02 02:14:50;;;;;;;7.00;3.95;;;;;;;;;;6186041;23;20301;-47
2021/05/02 02:17:16;;;;;;;7.25;4.53;;;;;;;;;;6186082;23;20009;-48
2021/05/02 02:19:42;;;;;;;6.05;3.63;;;;;;;;;;6185401;23;20297;-48
2021/05/02 02:22:10;;;;;;;10.25;4.43;;;;;;;;;;6185057;23;20464;-46
2021/05/02 02:24:47;;;;;;;5.43;3.50;;;;;;;;;;6185577;23;20056;-47
2021/05/02 02:27:14;;;;;;;6.15;3.72;;;;;;;;;;6186237;23;20001;-47
2021/05/02 02:29:42;;;;;;;7.38;4.22;;;;;;;;;;6185521;23;20002;-46
2021/05/02 02:32:10;;;;;;;4.25;2.78;;;;;;;;;;6180230;23;20005;-48
2021/05/02 02:34:39;;;;;;;3.83;2.47;;;;;;;;;;6185270;23;20009;-47
2021/05/02 02:37:05;;;;;;;5.65;3.38;;;;;;;;;;6185271;23;20001;-46
2021/05/02 02:39:32;;;;;;;5.97;3.17;;;;;;;;;;6185657;23;20005;-47
2021/05/02 02:41:59;;;;;;;6.90;3.83;;;;;;;;;;6185120;23;20385;-47
2021/05/02 02:44:27;;;;;;;4.82;3.17;;;;;;;;;;6185907;23;20274;-46
2021/05/02 02:46:55;;;;;;;5.45;3.78;;;;;;;;;;6185962;23;20005;-47
2021/05/02 02:49:21;;;;;;;7.40;3.47;;;;;;;;;;6185223;23;20008;-47
2021/05/02 02:51:50;;;;;;;5.82;3.65;;;;;;;;;;6185299;23;20005;-47
2021/05/02 02:54:17;;;;;;;7.53;3.70;;;;;;;;;;6185766;23;20005;-47
2021/05/02 02:56:45;;;;;;;7.22;4.00;;;;;;;;;;6185736;23;20001;-47
2021/05/02 02:59:24;;;;;;;8.00;4.07;;;;;;;;;;6184960;23;19993;-47
2021/05/02 03:01:50;;;;;;;7.47;4.00;;;;;;;;;;6185228;23;20019;-47
2021/05/02 03:04:17;;;;;;;7.82;4.65;;;;;;;;;;6185848;23;20149;-47
2021/05/02 03:06:43;;;;;;;6.43;3.95;;;;;;;;;;6185632;23;20005;-47
2021/05/02 03:09:09;;;;;;;8.38;3.83;;;;;;;;;;6184883;23;20455;-47
2021/05/02 03:11:35;;;;;;;7.63;4.05;;;;;;;;;;6185737;23;20008;-47
2021/05/02 03:14:02;;;;;;;7.03;4.55;;;;;;;;;;6185348;23;20084;-47
2021/05/02 03:16:28;;;;;;;6.32;3.80;;;;;;;;;;6185340;23;20013;-47
2021/05/02 03:19:13;;;;;;;4.65;3.35;;;;;;;;;;6184933;23;20023;-47
2021/05/02 03:21:45;;;;;;;6.07;4.25;;;;;;;;;;6185674;23;20005;-47
2021/05/02 03:24:11;;;;;;;8.45;4.70;;;;;;;;;;6184579;23;20005;-47
2021/05/02 03:26:38;;;;;;;6.28;4.25;;;;;;;;;;6181680;23;20151;-47
2021/05/02 03:29:04;;;;;;;6.47;3.92;;;;;;;;;;6184901;23;20009;-46
2021/05/02 03:31:32;;;;;;;6.28;4.35;;;;;;;;;;6185469;23;20005;-47
2021/05/02 03:34:03;;;;;;;6.50;3.88;;;;;;;;;;6185765;23;20080;-47
2021/05/02 03:36:29;;;;;;;;;;;;;;;;;;6187755;23;20017;-47
2021/05/02 03:38:55;;;;;;;8.35;4.25;;;;;;;;;;6186479;23;20277;-48
2021/05/02 03:41:21;;;;;;;7.47;3.90;;;;;;;;;;6187807;23;19997;-47
2021/05/02 03:43:47;;;;;;;6.43;3.90;;;;;;;;;;6187235;23;20405;-47
2021/05/02 03:46:25;;;;;;;7.85;3.47;;;;;;;;;;6187181;23;20083;-47
2021/05/02 03:48:53;;;;;;;4.85;3.40;;;;;;;;;;6186447;23;20012;-47
2021/05/02 03:51:19;;;;;;;6.85;3.88;;;;;;;;;;6187550;23;20005;-46
2021/05/02 03:53:45;;;;;;;6.05;3.20;;;;;;;;;;6186748;23;20039;-47
2021/05/02 03:56:11;;;;;;;6.82;3.80;;;;;;;;;;6186976;23;20012;-47
2021/05/02 03:58:37;;;;;;;5.38;3.65;;;;;;;;;;6186810;23;19997;-48
2021/05/02 04:01:03;;;;;;;5.90;3.75;;;;;;;;;;6186256;23;20009;-47
2021/05/02 04:03:29;;;;;;;7.75;4.30;;;;;;;;;;6186364;23;20080;-46
2021/05/02 04:05:55;;;;;;;7.95;4.60;;;;;;;;;;6187085;23;20011;-46
2021/05/02 04:08:21;;;;;;;9.43;5.68;;;;;;;;;;6186702;23;20036;-47
2021/05/02 04:10:47;;;;;;;12.52;5.97;;;;;;;;;;6187125;23;20304;-46
2021/05/02 04:13:13;;;;;;;15.35;7.53;;;;;;;;;;6186688;23;20004;-47
2021/05/02 04:15:39;;;;;;;16.05;7.38;;;;;;;;;;6187428;23;20009;-46
2021/05/02 04:18:05;;;;;;;16.50;6.88;;;;;;;;;;6185907;23;20001;-46
2021/05/02 04:20:31;;;;;;;8.82;5.80;;;;;;;;;;6186403;23;20036;-46
2021/05/02 04:22:57;;;;;;;12.73;6.10;;;;;;;;;;6186929;23;20131;-48
2021/05/02 04:25:23;;;;;;;13.30;6.25;;;;;;;;;;6186347;23;20032;-46
2021/05/02 04:27:49;;;;;;;10.50;6.07;;;;;;;;;;6186854;23;20341;-46
2021/05/02 04:30:15;;;;;;;13.95;5.80;;;;;;;;;;6186427;23;20031;-47
2021/05/02 04:32:41;;;;;;;10.40;6.47;;;;;;;;;;6186287;23;20450;-47
2021/05/02 04:35:07;;;;;;;9.63;4.88;;;;;;;;;;6186585;23;20047;-46
2021/05/02 04:37:33;;;;;;;8.18;4.82;;;;;;;;;;6186383;23;19997;-46
2021/05/02 04:39:59;;;;;;;9.55;5.15;;;;;;;;;;6185916;23;20012;-47
2021/05/02 04:42:25;;;;;;;8.93;5.00;;;;;;;;;;6186621;23;20013;-47
2021/05/02 04:44:51;;;;;;;7.00;3.95;;;;;;;;;;6185644;23;20333;-49
2021/05/02 04:47:18;;;;;;;7.38;4.53;;;;;;;;;;6186445;23;20017;-47
2021/05/02 04:49:45;;;;;;;6.25;4.10;;;;;;;;;;6185808;23;20018;-47
2021/05/02 04:52:13;;;;;;;8.23;4.35;;;;;;;;;;6186503;23;19997;-47
2021/05/02 04:54:39;;;;;;;10.00;4.13;;;;;;;;;;6186369;23;20009;-47
2021/05/02 04:57:05;;;;;;;7.07;4.45;;;;;;;;;;6186055;23;20023;-46
2021/05/02 04:59:31;;;;;;;9.85;5.70;;;;;;;;;;6185790;23;20054;-47
2021/05/02 05:01:57;;;;;;;7.85;5.13;;;;;;;;;;6186108;23;20028;-47
2021/05/02 05:04:23;;;;;;;6.93;4.53;;;;;;;;;;6186278;23;20001;-47
2021/05/02 05:06:49;;;;;;;9.60;4.75;;;;;;;;;;6186659;23;20444;-47
2021/05/02 05:09:15;;;;;;;9.82;5.13;;;;;;;;;;6185740;23;20080;-47
2021/05/02 05:11:41;;;;;;;9.18;4.95;;;;;;;;;;6186640;23;20001;-46
2021/05/02 05:14:07;;;;;;;9.35;5.53;;;;;;;;;;6186089;23;20269;-47
2021/05/02 05:16:33;;;;;;;8.60;4.35;;;;;;;;;;6186835;23;20313;-47
2021/05/02 05:18:59;;;;;;;10.40;5.35;;;;;;;;;;6186084;23;20332;-47
2021/05/02 05:21:25;;;;;;;8.25;5.00;;;;;;;;;;6209715;23;20009;-46
2021/05/02 05:23:51;;;;;;;10.50;5.97;;;;;;;;;;6186015;23;20009;-47
2021/05/02 05:26:17;;;;;;;8.30;4.65;;;;;;;;;;6186347;23;20012;-47
2021/05/02 05:28:43;;;;;;;9.23;5.68;;;;;;;;;;6185383;23;20059;-47
2021/05/02 05:31:09;;;;;;;10.63;6.13;;;;;;;;;;6186361;23;20404;-47
2021/05/02 05:33:35;;;;;;;9.82;5.63;;;;;;;;;;6186554;23;20005;-47
2021/05/02 05:36:01;;;;;;;9.63;5.35;;;;;;;;;;6186440;23;20009;-47
2021/05/02 05:38:28;;;;;;;9.27;5.75;;;;;;;;;;6186018;23;20005;-47
2021/05/02 05:40:54;;;;;;;11.90;5.90;;;;;;;;;;6186307;23;19997;-47
2021/05/02 05:43:21;;;;;;;11.20;6.20;;;;;;;;;;6186011;23;20001;-47
2021/05/02 05:45:47;;;;;;;10.38;5.82;;;;;;;;;;6186255;23;20029;-47
2021/05/02 05:48:13;;;;;;;12.40;6.53;;;;;;;;;;6186012;23;20385;-47
2021/05/02 05:50:42;;;;;;;12.32;6.68;;;;;;;;;;6186048;23;20012;-48
2021/05/02 05:53:07;;;;;;;12.35;6.63;;;;;;;;;;6186225;23;20001;-46
2021/05/02 05:55:33;;;;;;;11.10;6.82;;;;;;;;;;6186181;23;20017;-47
2021/05/02 05:57:59;;;;;;;12.82;7.30;;;;;;;;;;6185235;23;20165;-47
2021/05/02 06:00:25;;;;;;;13.10;7.30;;;;;;;;;;6185355;23;20457;-46
2021/05/02 06:02:51;;;;;;;14.77;7.80;;;;;;;;;;6183720;23;19997;-46
2021/05/02 06:05:18;;;;;;;12.98;7.45;;;;;;;;;;6183901;23;20001;-47
2021/05/02 06:07:44;;;;;;;13.52;7.82;;;;;;;;;;6182339;23;19997;-46
2021/05/02 06:10:10;;;;;;;13.18;7.80;;;;;;;;;;6183085;23;20063;-47
2021/05/02 06:12:36;;;;;;;14.98;9.13;;;;;;;;;;6183941;23;20377;-47
2021/05/02 06:15:04;;;;;;;18.30;8.57;;;;;;;;;;6184415;23;20301;-47
2021/05/02 06:17:30;;;;;;;13.77;8.77;;;;;;;;;;6184968;23;20001;-46
2021/05/02 06:19:56;;;;;;;14.52;9.05;;;;;;;;;;6185169;23;20084;-46
2021/05/02 06:22:22;;;;;;;18.75;8.23;;;;;;;;;;6184690;23;20020;-46
2021/05/02 06:24:48;;;;;;;13.68;8.85;;;;;;;;;;6185502;23;20390;-47
2021/05/02 06:27:14;;;;;;;16.25;8.50;;;;;;;;;;6185653;23;20015;-47
2021/05/02 06:29:40;;;;;;;16.08;8.68;;;;;;;;;;6185114;23;20028;-48
2021/05/02 06:32:06;;;;;;;14.60;8.38;;;;;;;;;;6185988;23;20005;-47
2021/05/02 06:34:32;;;;;;;14.95;9.50;;;;;;;;;;6185694;23;20286;-47
2021/05/02 06:36:58;;;;;;;14.95;8.73;;;;;;;;;;6185165;23;20028;-47
2021/05/02 06:39:25;;;;;;;17.77;9.73;;;;;;;;;;6185019;23;20001;-47
2021/05/02 06:41:51;;;;;;;16.88;9.07;;;;;;;;;;6185549;23;20005;-47
2021/05/02 06:44:18;;;;;;;16.85;9.48;;;;;;;;;;6185456;23;20001;-46
2021/05/02 06:46:44;;;;;;;17.27;9.23;;;;;;;;;;6185768;23;20040;-47
2021/05/02 06:49:10;;;;;;;13.18;7.85;;;;;;;;;;6185521;23;19997;-47
2021/05/02 06:51:38;;;;;;;17.10;9.50;;;;;;;;;;6184562;23;20298;-46
2021/05/02 06:54:04;;;;;;;14.38;8.50;;;;;;;;;;6184089;23;20173;-46
2021/05/02 06:56:30;;;;;;;14.40;9.30;;;;;;;;;;6184772;23;20324;-46
2021/05/02 06:58:56;;;;;;;14.75;9.20;;;;;;;;;;6183075;23;20574;-48
2021/05/02 07:01:23;;;;;;;14.07;8.45;;;;;;;;;;6181064;23;20091;-47
2021/05/02 07:03:49;;;;;;;17.88;9.85;;;;;;;;;;6183248;23;20003;-46
2021/05/02 07:06:15;;;;;;;15.27;8.80;;;;;;;;;;6182201;23;20055;-48
2021/05/02 07:08:41;;;;;;;13.57;8.73;;;;;;;;;;6182540;23;20029;-46
2021/05/02 07:11:08;;;;;;;16.30;8.98;;;;;;;;;;6182701;23;20001;-47
2021/05/02 07:13:34;;;;;;;18.73;9.93;;;;;;;;;;6183062;23;20001;-47
2021/05/02 07:16:00;;;;;;;18.15;9.52;;;;;;;;;;6185167;23;20017;-46
2021/05/02 07:18:46;;;;;;;19.23;9.43;;;;;;;;;;6185398;23;20063;-46
2021/05/02 07:21:14;;;;;;;20.92;9.60;;;;;;;;;;6182625;23;20470;-46
2021/05/02 07:23:40;;;;;;;20.83;10.82;;;;;;;;;;6182852;23;20393;-47
2021/05/02 07:26:08;;;;;;;21.55;10.93;;;;;;;;;;6183059;23;20005;-47
2021/05/02 07:28:34;;;;;;;17.58;9.85;;;;;;;;;;6182559;23;20016;-47
2021/05/02 07:31:00;;;;;;;23.20;10.05;;;;;;;;;;6183103;23;20253;-47
2021/05/02 07:33:27;;;;;;;19.52;10.15;;;;;;;;;;6182940;23;19997;-47
2021/05/02 07:35:53;;;;;;;20.08;10.32;;;;;;;;;;6182261;23;20009;-47
2021/05/02 07:38:19;;;;;;;17.58;9.85;;;;;;;;;;6182611;23;20052;-46
2021/05/02 07:40:45;;;;;;;20.88;10.10;;;;;;;;;;6183044;23;20005;-47
2021/05/02 07:43:11;;;;;;;14.93;8.10;;;;;;;;;;6183403;23;20005;-46
2021/05/02 07:45:37;;;;;;;18.67;8.82;;;;;;;;;;6183055;23;19997;-47
2021/05/02 07:48:03;;;;;;;16.33;9.50;;;;;;;;;;6182264;23;20040;-47
2021/05/02 07:50:30;;;;;;;18.17;9.45;;;;;;;;;;6180404;23;20374;-47
2021/05/02 07:52:56;;;;;;;20.13;10.20;;;;;;;;;;6182837;23;20298;-47
2021/05/02 07:55:22;;;;;;;20.35;9.43;;;;;;;;;;6185035;23;20431;-47
2021/05/02 07:57:48;;;;;;;19.92;8.35;;;;;;;;;;6185221;23;19997;-47
2021/05/02 08:00:18;;;;;;;19.58;11.00;;;;;;;;;;6184897;23;20001;-46
2021/05/02 08:02:44;;;;;;;22.05;11.38;;;;;;;;;;6184593;23;20008;-46
2021/05/02 08:05:10;;;;;;;17.50;10.32;;;;;;;;;;6185110;23;20413;-47
2021/05/02 08:07:36;;;;;;;13.82;8.35;;;;;;;;;;6185363;23;20020;-47
2021/05/02 08:10:02;;;;;;;17.17;9.15;;;;;;;;;;6184080;23;20001;-47
2021/05/02 08:12:28;;;;;;;17.15;8.02;;;;;;;;;;6184502;23;19993;-47
2021/05/02 08:14:54;;;;;;;13.25;8.40;;;;;;;;;;6185113;23;20311;-46
2021/05/02 08:17:20;;;;;;;16.55;9.82;;;;;;;;;;6184686;23;20301;-47
2021/05/02 08:19:46;;;;;;;20.95;9.75;;;;;;;;;;6184868;23;20628;-47
2021/05/02 08:22:12;;;;;;;21.55;9.27;;;;;;;;;;6187115;23;20456;-47
2021/05/02 08:24:38;;;;;;;21.35;11.18;;;;;;;;;;6186746;23;20033;-47
2021/05/02 08:27:04;;;;;;;19.75;8.38;;;;;;;;;;6184258;23;20059;-47
2021/05/02 08:29:30;;;;;;;27.20;11.93;;;;;;;;;;6184381;23;20004;-47
2021/05/02 08:31:56;;;;;;;18.92;6.80;;;;;;;;;;6185708;23;20348;-48
2021/05/02 08:34:22;;;;;;;24.77;13.25;;;;;;;;;;6186267;23;20016;-47
2021/05/02 08:36:48;;;;;;;19.15;10.65;;;;;;;;;;6186097;23;20029;-47
2021/05/02 08:39:14;;;;;;;21.65;11.32;;;;;;;;;;6186289;23;20065;-47
2021/05/02 08:41:41;;;;;;;25.77;12.77;;;;;;;;;;6186489;23;20430;-47
2021/05/02 08:44:07;;;;;;;24.98;12.57;;;;;;;;;;6125025;23;412215;-47
2021/05/02 08:46:33;;;;;;;18.85;10.93;;;;;;;;;;6206817;23;20001;-46
2021/05/02 08:48:59;;;;;;;22.83;11.63;;;;;;;;;;6186395;23;20435;-47
2021/05/02 08:51:25;;;;;;;23.25;12.18;;;;;;;;;;6186686;23;20028;-47
2021/05/02 08:53:51;;;;;;;21.08;10.90;;;;;;;;;;6186617;23;20020;-49
2021/05/02 08:56:17;;;;;;;26.67;11.38;;;;;;;;;;6186644;23;20016;-49
2021/05/02 08:58:43;;;;;;;21.52;9.73;;;;;;;;;;6185964;23;20315;-49
2021/05/02 09:01:09;;;;;;;20.95;12.45;;;;;;;;;;6185878;23;20338;-49
2021/05/02 09:03:46;;;;;;;27.63;11.00;;;;;;;;;;6186911;23;20009;-49
2021/05/02 09:06:15;;;;;;;18.25;10.70;;;;;;;;;;6186822;23;20001;-49
2021/05/02 09:08:41;;;;;;;27.63;11.77;;;;;;;;;;6186559;23;20144;-49
2021/05/02 09:11:07;;;;;;;22.70;11.70;;;;;;;;;;6185486;23;20040;-47
2021/05/02 09:13:33;;;;;;;21.23;10.48;;;;;;;;;;6186430;23;20001;-48
2021/05/02 09:16:00;;;;;;;23.27;12.20;;;;;;;;;;6185764;23;20024;-48
2021/05/02 09:18:55;;;;;;;25.45;12.25;;;;;;;;;;6185716;23;20385;-48
2021/05/02 09:21:31;;;;;;;18.52;9.65;;;;;;;;;;6178111;23;20108;-50
2021/05/02 09:23:59;;;;;;;20.25;11.38;;;;;;;;;;6186419;23;20001;-47
2021/05/02 09:26:32;;;;;;;20.45;10.55;;;;;;;;;;6186402;23;20297;-48
2021/05/02 09:28:59;;;;;;;21.77;12.15;;;;;;;;;;6186067;23;20348;-48
2021/05/02 09:31:26;;;;;;;29.58;12.82;;;;;;;;;;6185642;23;20032;-48
2021/05/02 09:33:52;;;;;;;23.88;12.20;;;;;;;;;;6186513;23;20001;-48
2021/05/02 09:36:20;;;;;;;23.88;11.15;;;;;;;;;;6186350;23;20086;-48
2021/05/02 09:38:46;;;;;;;19.98;11.35;;;;;;;;;;6185156;23;20017;-48
2021/05/02 09:41:13;;;;;;;14.32;9.02;;;;;;;;;;6186077;23;20001;-48
2021/05/02 09:43:41;;;;;;;20.83;9.85;;;;;;;;;;6186452;23;20009;-48
2021/05/02 09:49:00;;;;;;;8.07;6.05;;;;;;;;;;6185456;23;20044;-48
2021/05/02 09:51:28;;;;;;;17.83;9.65;;;;;;;;;;6185794;23;20016;-48
2021/05/02 09:54:04;;;;;;;17.35;8.55;;;;;;;;;;6184817;23;20432;-47
2021/05/02 09:56:34;;;;;;;16.05;9.02;;;;;;;;;;6185637;23;20048;-47
2021/05/02 09:59:00;;;;;;;;;;;;;;;;;;6185754;23;20008;-47
2021/05/02 10:01:27;;;;;;;16.92;9.40;;;;;;;;;;6185767;23;19982;-48
2021/05/02 10:03:54;;;;;;;19.48;8.80;;;;;;;;;;6185244;23;20095;-48
2021/05/02 10:06:38;;;;;;;19.13;9.70;;;;;;;;;;6186461;23;20009;-48
2021/05/02 10:09:06;;;;;;;16.27;9.80;;;;;;;;;;6184685;23;19997;-47
2021/05/02 10:11:33;;;;;;;14.55;9.65;;;;;;;;;;6185631;23;20005;-47
2021/05/02 10:14:00;;;;;;;16.65;9.77;;;;;;;;;;6185338;23;19997;-47
2021/05/02 10:16:27;;;;;;;17.27;9.88;;;;;;;;;;6185810;23;20013;-48
2021/05/02 10:18:53;;;;;;;17.42;9.98;;;;;;;;;;6184954;23;20543;-48
2021/05/02 10:21:19;;;;;;;16.30;9.10;;;;;;;;;;6215522;23;20063;-47
2021/05/02 10:23:46;;;;;;;16.77;9.65;;;;;;;;;;6215415;23;20404;-48
2021/05/02 10:26:12;;;;;;;15.65;9.00;;;;;;;;;;6215151;23;20060;-48
2021/05/02 10:28:38;;;;;;;13.27;8.40;;;;;;;;;;6215112;23;20262;-48
2021/05/02 10:31:06;;;;;;;16.45;9.75;;;;;;;;;;6215034;23;20001;-48
2021/05/02 10:33:32;;;;;;;18.80;10.32;;;;;;;;;;6215536;23;20059;-47
2021/05/02 10:36:03;;;;;;;21.05;10.18;;;;;;;;;;6215374;23;20036;-48
2021/05/02 10:38:48;;;;;;;17.15;9.98;;;;;;;;;;6214441;23;20153;-47
2021/05/02 10:41:21;;;;;;;15.57;9.13;;;;;;;;;;6214575;23;20456;-48
2021/05/02 10:43:47;;;;;;;19.08;10.25;;;;;;;;;;6214680;23;20024;-48
2021/05/02 10:46:32;;;;;;;16.73;9.52;;;;;;;;;;6163009;23;20009;-48
2021/05/02 10:48:58;;;;;;;17.98;9.93;;;;;;;;;;6155316;23;20267;-48
2021/05/02 10:51:24;;;;;;;19.45;10.52;;;;;;;;;;6155887;23;20005;-48
2021/05/02 10:54:21;;;;;;;17.33;10.20;;;;;;;;;;6155037;23;20347;-48
2021/05/02 10:56:49;;;;;;;13.05;7.78;;;;;;;;;;6093195;23;20089;-47
2021/05/02 10:59:15;;;;;;;15.60;9.13;;;;;;;;;;6093023;23;20002;-48
2021/05/02 11:01:41;;;;;;;15.60;8.90;;;;;;;;;;6093731;23;20089;-48
2021/05/02 11:04:08;;;;;;;14.77;8.35;;;;;;;;;;6093446;23;19998;-48
2021/05/02 11:06:41;;;;;;;16.13;9.82;;;;;;;;;;6093931;23;20014;-48
2021/05/02 11:09:08;;;;;;;7.18;4.30;;;;;;;;;;6091855;23;20057;-48
2021/05/02 11:11:38;;;;;;;12.18;8.18;;;;;;;;;;6093520;23;20013;-47
2021/05/02 11:14:10;;;;;;;17.33;9.93;;;;;;;;;;6093919;23;20007;-48
2021/05/02 11:16:54;;;;;;;13.52;8.25;;;;;;;;;;6093341;23;20040;-48
2021/05/02 11:19:22;;;;;;;12.52;7.63;;;;;;;;;;6092244;23;20010;-52
2021/05/02 11:21:48;;;;;;;15.88;6.78;;;;;;;;;;6093747;23;20434;-48
2021/05/02 11:24:21;;;;;;;14.45;7.80;;;;;;;;;;6093997;23;20082;-48
2021/05/02 11:29:22;;;;;;;24.23;10.15;;;;;;;;;;6093508;23;20097;-47
2021/05/02 11:31:48;;;;;;;20.63;7.72;;;;;;;;;;6093842;23;20010;-47
2021/05/02 11:34:14;;;;;;;16.42;9.07;;;;;;;;;;6151245;23;20028;-48
2021/05/02 11:36:41;;;;;;;18.25;9.55;;;;;;;;;;6155477;23;20410;-47
2021/05/02 11:39:27;;;;;;;15.38;9.45;;;;;;;;;;6155163;23;20002;-47
2021/05/02 11:42:01;;;;;;;14.85;8.50;;;;;;;;;;6155004;23;20370;-48
2021/05/02 11:44:27;;;;;;;12.45;7.18;;;;;;;;;;6155554;23;20001;-47
2021/05/02 11:46:53;;;;;;;15.68;8.75;;;;;;;;;;6153797;23;20012;-47
2021/05/02 11:49:19;;;;;;;14.75;8.68;;;;;;;;;;6150103;23;20005;-47
2021/05/02 11:51:55;;;;;;;16.02;9.23;;;;;;;;;;6153475;23;20472;-47
2021/05/02 11:54:21;;;;;;;15.38;8.30;;;;;;;;;;6153173;23;20596;-47
2021/05/02 11:56:50;;;;;;;17.75;9.02;;;;;;;;;;6155212;23;20020;-47
2021/05/02 11:59:16;;;;;;;19.15;7.78;;;;;;;;;;6153985;23;20052;-47
2021/05/02 12:01:46;;;;;;;13.20;7.38;;;;;;;;;;6153783;23;20005;-47
2021/05/02 12:04:19;;;;;;;11.05;6.78;;;;;;;;;;6153983;23;20008;-47
2021/05/02 12:06:48;;;;;;;11.57;6.72;;;;;;;;;;6153523;23;20009;-47
2021/05/02 12:09:15;;;;;;;10.85;6.57;;;;;;;;;;6154340;23;20084;-47
2021/05/02 12:11:42;;;;;;;7.03;5.32;;;;;;;;;;6157401;23;20002;-47
2021/05/02 12:14:08;;;;;;;12.13;7.38;;;;;;;;;;6157458;23;20006;-47
2021/05/02 12:16:34;;;;;;;12.10;6.47;;;;;;;;;;6157268;23;20013;-47
2021/05/02 12:19:01;;;;;;;13.63;7.53;;;;;;;;;;6156708;23;20005;-48
2021/05/02 12:21:34;;;;;;;8.23;5.65;;;;;;;;;;6186438;23;20008;-47
2021/05/02 12:24:06;;;;;;;6.10;4.53;;;;;;;;;;6187091;23;20031;-47
2021/05/02 12:26:32;;;;;;;12.23;6.47;;;;;;;;;;6187114;23;20005;-47
2021/05/02 12:29:00;;;;;;;12.57;6.68;;;;;;;;;;6186717;23;19997;-47
2021/05/02 12:31:26;;;;;;;11.15;6.30;;;;;;;;;;6187163;23;20135;-48
2021/05/02 12:33:52;;;;;;;15.50;6.28;;;;;;;;;;6185737;23;20013;-47
2021/05/02 12:36:18;;;;;;;9.18;5.78;;;;;;;;;;6186690;23;20005;-47
2021/05/02 12:38:45;;;;;;;10.60;5.95;;;;;;;;;;6186507;23;20005;-47
2021/05/02 12:41:18;;;;;;;6.78;4.25;;;;;;;;;;6185871;23;20012;-47
2021/05/02 12:43:49;;;;;;;9.50;5.40;;;;;;;;;;6186674;23;20092;-47
2021/05/02 12:46:34;;;;;;;8.95;5.50;;;;;;;;;;6185751;23;20001;-47
2021/05/02 12:49:17;;;;;;;11.30;5.65;;;;;;;;;;6185723;23;20005;-47
2021/05/02 12:51:46;;;;;;;16.48;7.30;;;;;;;;;;6186943;23;20009;-47
2021/05/02 12:54:13;;;;;;;4.78;3.08;;;;;;;;;;6186939;23;20001;-47
2021/05/02 12:56:40;;;;;;;6.53;4.38;;;;;;;;;;6186327;23;20013;-47
2021/05/02 12:59:26;;;;;;;8.20;4.68;;;;;;;;;;6186660;23;20001;-47
2021/05/02 13:02:03;;;;;;;8.75;4.75;;;;;;;;;;6186500;23;20005;-47
2021/05/02 13:04:41;;;;;;;4.35;2.75;;;;;;;;;;6185663;23;20492;-47
2021/05/02 13:07:07;;;;;;;9.93;4.60;;;;;;;;;;6185929;23;20004;-47
2021/05/02 13:09:43;;;;;;;9.05;4.05;;;;;;;;;;6184569;23;20009;-47
2021/05/02 13:12:09;;;;;;;6.43;4.07;;;;;;;;;;6186144;23;20001;-47
2021/05/02 13:14:35;;;;;;;9.48;5.13;;;;;;;;;;6186582;23;20005;-47
2021/05/02 13:17:08;;;;;;;8.45;4.68;;;;;;;;;;6186898;23;20031;-47
2021/05/02 13:19:35;;;;;;;9.23;5.28;;;;;;;;;;6184728;23;20005;-47
2021/05/02 13:22:13;;;;;;;8.85;4.82;;;;;;;;;;6186440;23;20452;-46
2021/05/02 13:24:58;;;;;;;3.72;1.38;;;;;;;;;;6186167;23;20436;-46
2021/05/02 13:27:36;;;;;;;1.10;0.52;;;;;;;;;;6186245;23;20001;-47
2021/05/02 13:30:02;;;;;;;8.65;5.45;;;;;;;;;;6185446;23;20009;-46
2021/05/02 13:32:28;;;;;;;2.90;2.13;;;;;;;;;;6186694;23;20059;-46
2021/05/02 13:34:54;;;;;;;8.43;4.75;;;;;;;;;;6185757;23;20044;-46
2021/05/02 13:37:20;;;;;;;8.30;4.65;;;;;;;;;;6186437;23;20033;-47
2021/05/02 13:39:46;;;;;;;9.00;5.38;;;;;;;;;;6185845;23;20007;-46
2021/05/02 13:42:12;;;;;;;7.47;4.43;;;;;;;;;;6186601;23;20385;-47
2021/05/02 13:44:38;;;;;;;7.50;5.03;;;;;;;;;;6177405;23;20024;-47
2021/05/02 13:47:04;;;;;;;6.68;2.78;;;;;;;;;;6186421;23;20006;-47
2021/05/02 13:49:30;;;;;;;9.77;6.75;;;;;;;;;;6184884;23;20008;-47
2021/05/02 13:51:56;;;;;;;20.63;8.80;;;;;;;;;;6186209;23;20001;-46
2021/05/02 13:54:22;;;;;;;14.98;7.15;;;;;;;;;;6185854;23;20008;-47
2021/05/02 13:56:48;;;;;;;12.38;6.63;;;;;;;;;;6185315;23;20017;-47
2021/05/02 13:59:14;;;;;;;12.32;6.60;;;;;;;;;;6185245;23;19993;-47
2021/05/02 14:01:42;;;;;;;11.27;7.10;;;;;;;;;;6186242;23;20023;-46
2021/05/02 14:04:08;;;;;;;11.43;6.97;;;;;;;;;;6185562;23;19993;-46
2021/05/02 14:06:34;;;;;;;9.35;6.38;;;;;;;;;;6185827;23;20005;-47
2021/05/02 14:09:00;;;;;;;8.63;6.13;;;;;;;;;;6186031;23;20051;-46
2021/05/02 14:11:27;;;;;;;8.32;4.72;;;;;;;;;;6185906;23;20012;-47
2021/05/02 14:13:53;;;;;;;9.85;5.88;;;;;;;;;;6185715;23;20007;-46
2021/05/02 14:16:19;;;;;;;9.80;5.75;;;;;;;;;;6185752;23;20382;-46
2021/05/02 14:18:45;;;;;;;11.32;6.40;;;;;;;;;;6185118;23;20085;-47
2021/05/02 14:21:12;;;;;;;12.98;5.93;;;;;;;;;;6184958;23;20361;-46
2021/05/02 14:23:38;;;;;;;14.65;7.82;;;;;;;;;;6186120;23;20254;-46
2021/05/02 14:26:04;;;;;;;10.55;6.90;;;;;;;;;;6185091;23;20009;-46
2021/05/02 14:28:31;;;;;;;10.60;6.07;;;;;;;;;;6184721;23;20547;-46
2021/05/02 14:30:57;;;;;;;10.77;6.95;;;;;;;;;;6185597;23;20076;-46
2021/05/02 14:33:23;;;;;;;12.95;7.43;;;;;;;;;;6186016;23;20017;-46
2021/05/02 14:35:50;;;;;;;9.52;6.47;;;;;;;;;;6184593;23;20088;-46
2021/05/02 14:38:16;;;;;;;12.80;7.57;;;;;;;;;;6185546;23;20012;-46
2021/05/02 14:40:42;;;;;;;13.88;6.95;;;;;;;;;;6185538;23;20013;-47
2021/05/02 14:43:08;;;;;;;11.68;6.35;;;;;;;;;;6185256;23;20313;-46
2021/05/02 14:45:34;;;;;;;10.00;6.43;;;;;;;;;;6184732;23;20397;-47